createdAt,value
2019-03-23T00:00:52.799Z,6.93
2019-03-23T00:01:55.747Z,6.86
2019-03-23T00:02:58.965Z,6.50
2019-03-23T00:04:04.582Z,6.50
2019-03-23T00:05:10.164Z,6.46
2019-03-23T00:06:14.554Z,6.38
2019-03-23T00:07:18.911Z,6.29
2019-03-23T00:08:22.100Z,6.29
2019-03-23T00:09:29.874Z,6.17
2019-03-23T00:10:33.612Z,6.12
2019-03-23T00:11:36.682Z,6.06
2019-03-23T00:12:41.077Z,6.09
2019-03-23T00:13:45.213Z,6.09
2019-03-23T00:14:50.780Z,6.07
2019-03-23T00:15:53.745Z,6.07
2019-03-23T00:16:56.781Z,6.17
2019-03-23T00:17:59.621Z,6.41
2019-03-23T00:19:03.577Z,6.56
2019-03-23T00:20:09.472Z,6.53
2019-03-23T00:21:12.417Z,6.53
2019-03-23T00:22:15.266Z,6.39
2019-03-23T00:23:18.100Z,6.29
2019-03-23T00:24:20.924Z,6.29
2019-03-23T00:25:23.750Z,6.27
2019-03-23T00:26:26.931Z,6.27
2019-03-23T00:27:29.755Z,6.44
2019-03-23T00:28:32.700Z,6.42
2019-03-23T00:29:35.538Z,6.33
2019-03-23T00:30:38.337Z,6.41
2019-03-23T00:31:41.704Z,6.50
2019-03-23T00:32:44.879Z,6.50
2019-03-23T00:33:47.756Z,6.63
2019-03-23T00:34:50.586Z,6.60
2019-03-23T00:35:53.436Z,6.55
2019-03-23T00:36:56.372Z,6.47
2019-03-23T00:37:59.566Z,6.47
2019-03-23T00:39:02.842Z,6.36
2019-03-23T00:40:05.667Z,6.36
2019-03-23T00:41:08.516Z,6.45
2019-03-23T00:42:11.346Z,6.54
2019-03-23T00:43:17.235Z,6.47
2019-03-23T00:44:27.708Z,6.47
2019-03-23T00:45:35.824Z,6.47
2019-03-23T00:46:38.666Z,6.25
2019-03-23T00:47:42.724Z,6.19
2019-03-23T00:48:45.624Z,6.19
2019-03-23T00:49:48.464Z,6.20
2019-03-23T00:50:51.752Z,6.20
2019-03-23T00:51:55.238Z,6.48
2019-03-23T00:52:58.483Z,6.42
2019-03-23T00:54:04.483Z,6.38
2019-03-23T00:55:07.358Z,6.53
2019-03-23T00:56:10.269Z,6.50
2019-03-23T00:57:13.380Z,6.40
2019-03-23T00:58:16.522Z,6.38
2019-03-23T00:59:19.358Z,6.41
2019-03-23T01:00:22.340Z,6.36
2019-03-23T01:01:25.110Z,6.36
2019-03-23T01:02:28.029Z,6.41
2019-03-23T01:03:31.176Z,6.16
2019-03-23T01:04:33.990Z,6.16
2019-03-23T01:05:37.196Z,6.23
2019-03-23T01:06:40.138Z,6.23
2019-03-23T01:07:43.078Z,6.41
2019-03-23T01:08:45.890Z,6.29
2019-03-23T01:09:48.984Z,6.28
2019-03-23T01:10:51.856Z,6.30
2019-03-23T01:11:55.038Z,6.34
2019-03-23T01:12:57.897Z,6.34
2019-03-23T01:14:01.127Z,6.44
2019-03-23T01:15:04.074Z,6.44
2019-03-23T01:16:07.291Z,6.29
2019-03-23T01:17:10.561Z,6.19
2019-03-23T01:18:13.414Z,6.15
2019-03-23T01:19:16.338Z,6.06
2019-03-23T01:20:19.620Z,6.11
2019-03-23T01:21:22.509Z,6.12
2019-03-23T01:22:25.627Z,6.12
2019-03-23T01:23:28.527Z,6.11
2019-03-23T01:24:31.347Z,5.96
2019-03-23T01:25:34.159Z,5.98
2019-03-23T01:26:36.965Z,5.98
2019-03-23T01:27:39.798Z,6.16
2019-03-23T01:28:43.358Z,6.16
2019-03-23T01:29:48.677Z,5.97
2019-03-23T01:30:51.922Z,5.95
2019-03-23T01:31:54.788Z,6.06
2019-03-23T01:32:57.992Z,5.91
2019-03-23T01:34:00.867Z,5.91
2019-03-23T01:35:03.666Z,6.01
2019-03-23T01:36:06.489Z,6.03
2019-03-23T01:37:09.761Z,6.03
2019-03-23T01:38:12.599Z,5.91
2019-03-23T01:39:15.660Z,5.76
2019-03-23T01:40:18.713Z,5.74
2019-03-23T01:41:21.634Z,5.55
2019-03-23T01:42:24.472Z,5.44
2019-03-23T01:43:27.319Z,5.36
2019-03-23T01:44:30.232Z,5.36
2019-03-23T01:45:33.145Z,5.23
2019-03-23T01:46:36.258Z,5.29
2019-03-23T01:47:39.104Z,5.41
2019-03-23T01:48:41.889Z,5.32
2019-03-23T01:49:44.763Z,5.22
2019-03-23T01:50:47.629Z,5.37
2019-03-23T01:51:50.834Z,5.47
2019-03-23T01:52:53.977Z,5.53
2019-03-23T01:53:56.836Z,5.53
2019-03-23T01:54:59.645Z,5.64
2019-03-23T01:56:02.544Z,5.62
2019-03-23T01:57:05.408Z,5.69
2019-03-23T01:58:08.238Z,5.74
2019-03-23T01:59:11.345Z,5.79
2019-03-23T02:00:14.234Z,5.82
2019-03-23T02:01:17.415Z,5.84
2019-03-23T02:02:20.654Z,5.91
2019-03-23T02:03:23.451Z,5.73
2019-03-23T02:04:26.256Z,5.76
2019-03-23T02:05:29.364Z,5.64
2019-03-23T02:06:32.552Z,5.53
2019-03-23T02:07:35.438Z,5.44
2019-03-23T02:08:38.226Z,5.44
2019-03-23T02:09:41.051Z,5.36
2019-03-23T02:10:43.860Z,5.41
2019-03-23T02:11:46.960Z,5.51
2019-03-23T02:12:50.186Z,5.60
2019-03-23T02:13:53.043Z,5.64
2019-03-23T02:14:55.904Z,5.65
2019-03-23T02:15:59.079Z,5.59
2019-03-23T02:17:01.972Z,5.52
2019-03-23T02:18:05.079Z,5.49
2019-03-23T02:19:09.563Z,5.56
2019-03-23T02:20:12.403Z,5.59
2019-03-23T02:21:15.245Z,5.59
2019-03-23T02:22:18.120Z,5.59
2019-03-23T02:23:21.277Z,5.51
2019-03-23T02:24:24.406Z,5.54
2019-03-23T02:25:27.564Z,5.54
2019-03-23T02:26:30.368Z,5.57
2019-03-23T02:27:33.243Z,5.64
2019-03-23T02:28:36.105Z,5.74
2019-03-23T02:29:39.003Z,5.58
2019-03-23T02:30:42.112Z,5.38
2019-03-23T02:31:47.213Z,5.38
2019-03-23T02:32:49.998Z,5.51
2019-03-23T02:33:52.910Z,5.42
2019-03-23T02:34:55.736Z,5.23
2019-03-23T02:35:58.549Z,5.20
2019-03-23T02:37:01.635Z,5.26
2019-03-23T02:38:04.522Z,5.19
2019-03-23T02:39:07.600Z,4.84
2019-03-23T02:40:11.135Z,4.95
2019-03-23T02:41:17.716Z,5.02
2019-03-23T02:42:20.576Z,5.02
2019-03-23T02:43:23.702Z,5.12
2019-03-23T02:44:27.068Z,5.24
2019-03-23T02:45:30.490Z,5.24
2019-03-23T02:46:33.533Z,5.26
2019-03-23T02:47:36.339Z,5.27
2019-03-23T02:48:39.211Z,5.30
2019-03-23T02:49:43.579Z,5.30
2019-03-23T02:50:46.470Z,5.10
2019-03-23T02:51:49.289Z,4.92
2019-03-23T02:52:52.134Z,4.82
2019-03-23T02:53:54.960Z,4.69
2019-03-23T02:54:57.780Z,4.68
2019-03-23T02:56:00.967Z,4.80
2019-03-23T02:57:03.783Z,4.80
2019-03-23T02:58:06.594Z,5.13
2019-03-23T02:59:09.505Z,5.13
2019-03-23T03:00:12.295Z,5.24
2019-03-23T03:01:15.177Z,5.24
2019-03-23T03:02:18.299Z,5.07
2019-03-23T03:03:21.505Z,4.97
2019-03-23T03:04:24.311Z,5.03
2019-03-23T03:05:27.137Z,4.98
2019-03-23T03:06:30.004Z,5.08
2019-03-23T03:07:41.742Z,5.16
2019-03-23T03:08:37.673Z,5.17
2019-03-23T03:09:40.475Z,5.08
2019-03-23T03:10:43.359Z,5.03
2019-03-23T03:11:46.149Z,4.96
2019-03-23T03:12:48.977Z,4.96
2019-03-23T03:13:52.093Z,4.91
2019-03-23T03:14:54.887Z,4.76
2019-03-23T03:15:58.161Z,4.68
2019-03-23T03:17:01.044Z,4.62
2019-03-23T03:18:03.882Z,4.56
2019-03-23T03:19:06.701Z,4.56
2019-03-23T03:20:10.262Z,4.56
2019-03-23T03:21:13.149Z,4.59
2019-03-23T03:22:15.975Z,4.69
2019-03-23T03:23:18.859Z,4.76
2019-03-23T03:24:21.649Z,4.76
2019-03-23T03:25:24.754Z,4.82
2019-03-23T03:26:27.924Z,4.86
2019-03-23T03:27:30.776Z,4.80
2019-03-23T03:28:33.893Z,4.87
2019-03-23T03:29:37.875Z,4.90
2019-03-23T03:30:41.185Z,4.98
2019-03-23T03:31:44.070Z,4.98
2019-03-23T03:32:47.475Z,4.94
2019-03-23T03:33:50.421Z,4.94
2019-03-23T03:34:53.322Z,4.85
2019-03-23T03:35:56.552Z,4.85
2019-03-23T03:36:59.414Z,4.92
2019-03-23T03:38:02.612Z,4.92
2019-03-23T03:39:05.919Z,4.93
2019-03-23T03:40:09.037Z,4.95
2019-03-23T03:41:11.890Z,4.87
2019-03-23T03:42:14.851Z,4.79
2019-03-23T03:43:17.729Z,4.82
2019-03-23T03:44:22.097Z,4.79
2019-03-23T03:45:25.228Z,4.79
2019-03-23T03:46:28.134Z,4.87
2019-03-23T03:47:31.022Z,4.87
2019-03-23T03:48:34.303Z,4.92
2019-03-23T03:49:37.116Z,4.95
2019-03-23T03:50:39.933Z,4.88
2019-03-23T03:51:43.125Z,4.88
2019-03-23T03:52:46.368Z,4.81
2019-03-23T03:53:49.218Z,4.87
2019-03-23T03:54:52.113Z,4.82
2019-03-23T03:55:54.936Z,4.82
2019-03-23T03:56:57.765Z,4.63
2019-03-23T03:58:00.958Z,4.62
2019-03-23T03:59:03.757Z,4.63
2019-03-23T04:00:06.612Z,4.68
2019-03-23T04:01:09.458Z,4.67
2019-03-23T04:02:12.659Z,4.70
2019-03-23T04:03:15.556Z,4.70
2019-03-23T04:04:18.666Z,4.90
2019-03-23T04:05:21.887Z,4.90
2019-03-23T04:06:24.795Z,4.95
2019-03-23T04:07:28.035Z,4.93
2019-03-23T04:08:31.663Z,4.30
2019-03-23T04:09:34.464Z,4.17
2019-03-23T04:10:37.590Z,4.08
2019-03-23T04:11:40.454Z,4.18
2019-03-23T04:12:43.653Z,4.38
2019-03-23T04:13:46.455Z,4.38
2019-03-23T04:14:49.302Z,4.42
2019-03-23T04:15:52.132Z,4.51
2019-03-23T04:16:56.466Z,4.47
2019-03-23T04:17:59.283Z,4.46
2019-03-23T04:19:02.069Z,4.53
2019-03-23T04:20:04.954Z,4.53
2019-03-23T04:21:08.186Z,4.60
2019-03-23T04:22:10.976Z,4.44
2019-03-23T04:23:14.051Z,4.34
2019-03-23T04:24:16.843Z,4.20
2019-03-23T04:25:19.739Z,4.10
2019-03-23T04:26:22.561Z,4.10
2019-03-23T04:27:28.148Z,3.89
2019-03-23T04:28:30.953Z,3.83
2019-03-23T04:29:36.541Z,3.83
2019-03-23T04:30:39.803Z,3.89
2019-03-23T04:31:42.598Z,4.03
2019-03-23T04:32:45.506Z,4.11
2019-03-23T04:33:48.316Z,4.15
2019-03-23T04:34:51.156Z,4.25
2019-03-23T04:35:54.521Z,4.29
2019-03-23T04:36:57.362Z,4.31
2019-03-23T04:38:00.217Z,4.46
2019-03-23T04:39:03.054Z,4.52
2019-03-23T04:40:05.880Z,4.52
2019-03-23T04:41:09.585Z,4.36
2019-03-23T04:42:13.035Z,4.28
2019-03-23T04:43:16.280Z,4.29
2019-03-23T04:44:19.133Z,4.32
2019-03-23T04:45:21.996Z,4.32
2019-03-23T04:46:24.914Z,3.86
2019-03-23T04:47:27.804Z,3.83
2019-03-23T04:48:31.366Z,3.83
2019-03-23T04:49:34.196Z,3.93
2019-03-23T04:50:43.116Z,4.02
2019-03-23T04:51:46.419Z,4.07
2019-03-23T04:52:49.214Z,4.16
2019-03-23T04:53:52.012Z,4.31
2019-03-23T04:54:55.548Z,4.42
2019-03-23T04:55:58.373Z,4.36
2019-03-23T04:57:01.263Z,4.35
2019-03-23T04:58:04.057Z,4.32
2019-03-23T04:59:06.887Z,4.32
2019-03-23T05:00:09.710Z,4.30
2019-03-23T05:01:12.786Z,4.17
2019-03-23T05:02:15.694Z,4.07
2019-03-23T05:03:18.513Z,4.07
2019-03-23T05:04:22.548Z,3.97
2019-03-23T05:05:25.737Z,3.95
2019-03-23T05:06:28.913Z,3.88
2019-03-23T05:07:32.346Z,3.88
2019-03-23T05:08:35.136Z,3.78
2019-03-23T05:09:40.738Z,3.65
2019-03-23T05:10:43.680Z,3.61
2019-03-23T05:11:46.878Z,3.65
2019-03-23T05:12:52.275Z,3.67
2019-03-23T05:13:58.288Z,3.67
2019-03-23T05:15:01.930Z,3.81
2019-03-23T05:16:05.157Z,3.93
2019-03-23T05:17:08.026Z,3.90
2019-03-23T05:18:11.435Z,3.93
2019-03-23T05:19:14.602Z,4.04
2019-03-23T05:20:17.692Z,4.14
2019-03-23T05:21:20.993Z,4.14
2019-03-23T05:22:23.783Z,4.15
2019-03-23T05:23:26.665Z,4.10
2019-03-23T05:24:29.898Z,4.09
2019-03-23T05:25:32.717Z,4.06
2019-03-23T05:26:35.862Z,4.06
2019-03-23T05:27:38.674Z,3.89
2019-03-23T05:28:43.442Z,3.89
2019-03-23T05:29:46.221Z,3.86
2019-03-23T05:30:49.075Z,3.77
2019-03-23T05:31:54.299Z,3.81
2019-03-23T05:32:57.401Z,3.85
2019-03-23T05:34:00.192Z,3.78
2019-03-23T05:35:02.988Z,3.88
2019-03-23T05:36:05.877Z,3.89
2019-03-23T05:37:08.697Z,3.87
2019-03-23T05:38:11.504Z,3.81
2019-03-23T05:39:15.100Z,3.71
2019-03-23T05:40:18.331Z,3.71
2019-03-23T05:41:21.212Z,3.57
2019-03-23T05:42:24.058Z,3.55
2019-03-23T05:43:27.003Z,3.56
2019-03-23T05:44:31.044Z,3.49
2019-03-23T05:45:34.232Z,3.30
2019-03-23T05:46:37.327Z,3.40
2019-03-23T05:47:40.159Z,3.51
2019-03-23T05:48:42.941Z,3.54
2019-03-23T05:49:46.593Z,3.68
2019-03-23T05:50:50.429Z,3.68
2019-03-23T05:51:53.602Z,3.61
2019-03-23T05:52:56.505Z,3.67
2019-03-23T05:54:01.852Z,3.65
2019-03-23T05:55:04.686Z,3.69
2019-03-23T05:56:07.565Z,3.69
2019-03-23T05:57:13.495Z,3.43
2019-03-23T05:58:16.652Z,3.44
2019-03-23T05:59:19.738Z,3.45
2019-03-23T06:00:22.550Z,3.43
2019-03-23T06:01:25.422Z,3.43
2019-03-23T06:02:28.303Z,3.54
2019-03-23T06:03:31.139Z,3.54
2019-03-23T06:04:34.265Z,3.58
2019-03-23T06:05:37.519Z,3.64
2019-03-23T06:06:40.372Z,3.49
2019-03-23T06:07:43.203Z,3.40
2019-03-23T06:08:54.488Z,3.30
2019-03-23T06:09:51.035Z,3.25
2019-03-23T06:10:54.132Z,3.25
2019-03-23T06:11:57.044Z,3.25
2019-03-23T06:13:02.322Z,3.40
2019-03-23T06:14:05.220Z,3.69
2019-03-23T06:15:08.051Z,3.85
2019-03-23T06:16:10.906Z,3.94
2019-03-23T06:17:16.694Z,3.98
2019-03-23T06:18:23.975Z,4.03
2019-03-23T06:19:26.913Z,4.03
2019-03-23T06:20:31.971Z,4.08
2019-03-23T06:21:34.800Z,4.01
2019-03-23T06:22:37.706Z,4.27
2019-03-23T06:23:40.883Z,4.27
2019-03-23T06:24:43.789Z,4.60
2019-03-23T06:25:46.578Z,4.73
2019-03-23T06:26:49.412Z,4.88
2019-03-23T06:27:52.494Z,4.86
2019-03-23T06:28:55.726Z,5.06
2019-03-23T06:29:58.859Z,5.06
2019-03-23T06:43:59.520Z,6.44
2019-03-23T06:45:02.458Z,6.36
2019-03-23T06:46:05.328Z,6.36
2019-03-23T06:47:08.185Z,6.31
2019-03-23T06:48:10.985Z,6.31
2019-03-23T06:49:14.093Z,6.71
2019-03-23T06:50:18.955Z,6.60
2019-03-23T06:51:21.845Z,6.61
2019-03-23T06:52:25.068Z,6.77
2019-03-23T06:53:27.870Z,6.77
2019-03-23T06:54:30.676Z,6.76
2019-03-23T06:55:33.821Z,7.05
2019-03-23T06:56:38.925Z,7.08
2019-03-23T06:57:41.789Z,7.02
2019-03-23T06:58:44.596Z,6.85
2019-03-23T06:59:47.389Z,6.78
2019-03-23T07:00:50.252Z,7.15
2019-03-23T07:01:53.163Z,7.43
2019-03-23T07:02:58.247Z,7.59
2019-03-23T07:04:01.101Z,7.59
2019-03-23T07:05:03.915Z,7.74
2019-03-23T07:06:06.763Z,7.78
2019-03-23T07:07:11.138Z,7.78
2019-03-23T07:08:15.391Z,7.42
2019-03-23T07:09:18.213Z,7.44
2019-03-23T07:10:21.067Z,7.66
2019-03-23T07:11:25.696Z,7.71
2019-03-23T07:12:28.598Z,7.71
2019-03-23T07:13:34.771Z,7.71
2019-03-23T07:14:37.602Z,7.75
2019-03-23T07:15:40.766Z,7.57
2019-03-23T07:16:43.609Z,7.57
2019-03-23T07:17:52.387Z,7.61
2019-03-23T07:18:55.267Z,8.10
2019-03-23T07:20:00.519Z,8.13
2019-03-23T07:21:03.732Z,7.95
2019-03-23T07:22:06.559Z,8.03
2019-03-23T07:23:09.400Z,8.03
2019-03-23T07:24:12.654Z,8.64
2019-03-23T07:25:15.853Z,8.64
2019-03-23T07:26:18.664Z,9.39
2019-03-23T07:27:21.511Z,9.38
2019-03-23T07:28:24.322Z,9.64
2019-03-23T07:29:27.213Z,9.41
2019-03-23T07:30:31.235Z,9.14
2019-03-23T07:31:36.117Z,9.07
2019-03-23T07:32:39.429Z,9.07
2019-03-23T07:33:45.247Z,8.65
2019-03-23T07:34:48.584Z,8.40
2019-03-23T07:35:54.640Z,8.83
2019-03-23T07:36:57.532Z,9.17
2019-03-23T07:38:00.658Z,9.17
2019-03-23T07:39:26.465Z,9.37
2019-03-23T07:40:20.890Z,9.25
2019-03-23T07:41:23.816Z,9.27
2019-03-23T07:42:26.623Z,9.41
2019-03-23T07:43:31.097Z,9.46
2019-03-23T07:44:34.338Z,9.52
2019-03-23T07:45:38.272Z,9.52
2019-03-23T07:46:41.601Z,9.73
2019-03-23T07:47:44.473Z,9.59
2019-03-23T07:48:47.327Z,9.58
2019-03-23T07:49:50.201Z,9.63
2019-03-23T07:50:53.312Z,10.21
2019-03-23T07:51:56.122Z,10.69
2019-03-23T07:53:01.879Z,10.53
2019-03-23T07:54:04.412Z,11.14
2019-03-23T07:55:07.298Z,11.25
2019-03-23T07:56:10.103Z,11.28
2019-03-23T07:57:13.646Z,10.90
2019-03-23T07:58:16.529Z,10.90
2019-03-23T07:59:19.355Z,10.36
2019-03-23T08:00:22.205Z,10.02
2019-03-23T08:01:27.324Z,10.31
2019-03-23T08:02:34.329Z,10.85
2019-03-23T08:03:39.326Z,11.38
2019-03-23T08:04:42.155Z,11.10
2019-03-23T08:05:53.847Z,11.51
2019-03-23T08:06:57.063Z,11.87
2019-03-23T08:08:01.836Z,11.83
2019-03-23T08:09:05.875Z,11.83
2019-03-23T08:10:12.031Z,11.53
2019-03-23T08:11:16.912Z,11.30
2019-03-23T08:12:19.382Z,11.24
2019-03-23T08:13:28.343Z,11.44
2019-03-23T08:14:32.656Z,11.37
2019-03-23T08:15:35.477Z,11.37
2019-03-23T08:16:38.691Z,11.66
2019-03-23T08:17:44.716Z,11.66
2019-03-23T08:18:50.577Z,11.71
2019-03-23T08:19:54.721Z,11.54
2019-03-23T08:21:01.289Z,11.84
2019-03-23T08:22:06.078Z,11.70
2019-03-23T08:23:29.023Z,11.58
2019-03-23T08:24:34.257Z,12.25
2019-03-23T08:25:37.205Z,12.32
2019-03-23T08:26:49.816Z,12.32
2019-03-23T08:27:55.072Z,12.90
2019-03-23T08:28:59.612Z,12.90
2019-03-23T08:30:07.844Z,12.68
2019-03-23T08:31:10.716Z,12.68
2019-03-23T08:32:13.513Z,12.64
2019-03-23T08:33:18.288Z,12.20
2019-03-23T08:34:22.050Z,11.68
2019-03-23T08:35:25.289Z,11.68
2019-03-23T08:36:28.513Z,12.51
2019-03-23T08:37:38.081Z,12.51
2019-03-23T08:38:40.634Z,12.99
2019-03-23T08:39:50.709Z,12.72
2019-03-23T08:40:55.014Z,11.79
2019-03-23T08:41:58.939Z,11.79
2019-03-23T08:43:02.106Z,12.05
2019-03-23T08:44:04.969Z,12.05
2019-03-23T08:45:07.860Z,11.56
2019-03-23T08:46:20.043Z,11.91
2019-03-23T08:47:25.414Z,11.91
2019-03-23T08:48:28.800Z,11.41
2019-03-23T08:49:32.167Z,11.41
2019-03-23T08:50:37.532Z,12.49
2019-03-23T08:51:42.848Z,12.89
2019-03-23T08:52:46.001Z,12.89
2019-03-23T08:53:50.496Z,12.99
2019-03-23T08:55:02.350Z,13.58
2019-03-23T08:56:05.822Z,12.74
2019-03-23T08:57:08.640Z,12.35
2019-03-23T08:58:13.921Z,12.05
2019-03-23T08:59:16.768Z,11.25
2019-03-23T09:00:19.589Z,11.25
2019-03-23T09:01:25.762Z,11.25
2019-03-23T09:02:28.672Z,11.22
2019-03-23T09:03:33.318Z,11.64
2019-03-23T09:04:36.119Z,11.64
2019-03-23T09:05:38.987Z,11.57
2019-03-23T09:06:41.813Z,11.37
2019-03-23T09:08:53.628Z,11.21
2019-03-23T09:09:59.483Z,11.40
2019-03-23T09:11:00.946Z,11.40
2019-03-23T09:12:05.270Z,11.04
2019-03-23T09:13:10.897Z,11.04
2019-03-23T09:14:14.641Z,11.10
2019-03-23T09:15:17.480Z,11.40
2019-03-23T09:16:20.305Z,11.40
2019-03-23T09:17:23.110Z,11.40
2019-03-23T09:18:26.348Z,11.40
2019-03-23T09:19:32.413Z,11.13
2019-03-23T09:20:35.672Z,10.90
2019-03-23T09:21:38.479Z,10.90
2019-03-23T09:22:44.010Z,10.55
2019-03-23T09:23:47.716Z,10.98
2019-03-23T09:24:50.607Z,11.61
2019-03-23T09:25:53.401Z,11.14
2019-03-23T09:26:56.873Z,11.14
2019-03-23T09:27:59.759Z,11.84
2019-03-23T09:29:02.624Z,11.84
2019-03-23T09:30:05.636Z,12.13
2019-03-23T09:31:08.943Z,11.94
2019-03-23T09:32:11.806Z,12.35
2019-03-23T09:33:15.066Z,12.61
2019-03-23T09:34:18.941Z,12.40
2019-03-23T09:35:24.963Z,12.40
2019-03-23T09:36:28.030Z,12.68
2019-03-23T09:37:30.955Z,13.68
2019-03-23T09:38:35.356Z,13.11
2019-03-23T09:39:38.252Z,12.92
2019-03-23T09:40:41.202Z,12.92
2019-03-23T09:41:45.691Z,12.48
2019-03-23T09:42:50.403Z,11.86
2019-03-23T09:43:55.359Z,11.65
2019-03-23T09:44:58.386Z,12.06
2019-03-23T09:46:02.700Z,11.51
2019-03-23T09:47:09.115Z,11.51
2019-03-23T09:48:12.011Z,11.22
2019-03-23T09:49:14.878Z,12.05
2019-03-23T09:50:18.132Z,11.85
2019-03-23T09:51:21.240Z,11.85
2019-03-23T09:52:24.804Z,11.84
2019-03-23T09:53:27.985Z,11.84
2019-03-23T09:54:31.611Z,12.40
2019-03-23T09:55:34.884Z,12.20
2019-03-23T09:56:40.789Z,12.20
2019-03-23T09:57:45.203Z,12.15
2019-03-23T09:58:48.173Z,12.15
2019-03-23T09:59:51.001Z,12.22
2019-03-23T10:00:54.121Z,12.22
2019-03-23T10:01:57.006Z,12.28
2019-03-23T10:03:00.243Z,12.62
2019-03-23T10:04:04.362Z,12.45
2019-03-23T10:05:07.218Z,11.76
2019-03-23T10:06:13.184Z,12.09
2019-03-23T10:07:16.045Z,11.87
2019-03-23T10:08:19.082Z,11.87
2019-03-23T10:09:22.290Z,12.87
2019-03-23T10:10:25.172Z,12.87
2019-03-23T10:11:28.014Z,10.93
2019-03-23T10:12:30.876Z,11.05
2019-03-23T10:13:33.730Z,10.63
2019-03-23T10:14:36.594Z,10.63
2019-03-23T10:15:48.806Z,11.16
2019-03-23T10:16:51.633Z,11.57
2019-03-23T10:18:01.815Z,11.42
2019-03-23T10:19:04.748Z,11.42
2019-03-23T10:20:12.762Z,12.17
2019-03-23T10:21:15.622Z,12.18
2019-03-23T10:22:22.596Z,11.94
2019-03-23T10:23:25.536Z,12.45
2019-03-23T10:24:28.423Z,12.45
2019-03-23T10:25:31.274Z,11.12
2019-03-23T10:26:35.676Z,11.12
2019-03-23T10:27:38.498Z,10.64
2019-03-23T10:28:45.141Z,10.86
2019-03-23T10:29:48.034Z,11.02
2019-03-23T10:30:51.417Z,10.66
2019-03-23T10:31:55.792Z,11.03
2019-03-23T10:32:59.052Z,10.43
2019-03-23T10:34:02.298Z,10.43
2019-03-23T10:35:12.824Z,10.86
2019-03-23T10:36:15.740Z,10.76
2019-03-23T10:37:18.667Z,10.44
2019-03-23T10:38:21.540Z,10.49
2019-03-23T10:39:24.344Z,10.49
2019-03-23T10:40:32.433Z,10.18
2019-03-23T10:41:32.601Z,10.18
2019-03-23T10:42:35.446Z,10.55
2019-03-23T10:43:39.113Z,10.55
2019-03-23T10:44:45.249Z,11.08
2019-03-23T10:45:48.141Z,10.56
2019-03-23T10:46:51.534Z,10.56
2019-03-23T10:47:58.228Z,10.69
2019-03-23T10:49:01.900Z,10.69
2019-03-23T10:50:08.218Z,10.77
2019-03-23T10:51:11.133Z,10.77
2019-03-23T10:52:14.382Z,10.01
2019-03-23T10:53:23.296Z,9.89
2019-03-23T10:54:27.025Z,9.69
2019-03-23T10:55:29.883Z,9.69
2019-03-23T10:56:32.700Z,11.09
2019-03-23T10:57:36.762Z,11.09
2019-03-23T10:58:39.555Z,9.81
2019-03-23T10:59:52.490Z,10.44
2019-03-23T11:00:55.348Z,10.44
2019-03-23T11:01:58.262Z,11.82
2019-03-23T11:03:03.889Z,11.55
2019-03-23T11:04:06.701Z,11.55
2019-03-23T11:05:10.190Z,10.74
2019-03-23T11:06:15.318Z,10.64
2019-03-23T11:07:18.184Z,11.81
2019-03-23T11:08:24.684Z,12.07
2019-03-23T11:09:29.142Z,11.46
2019-03-23T11:10:41.462Z,11.17
2019-03-23T11:12:01.967Z,11.17
2019-03-23T11:13:06.843Z,11.31
2019-03-23T11:14:10.668Z,11.31
2019-03-23T11:15:14.632Z,10.88
2019-03-23T11:16:23.325Z,11.66
2019-03-23T11:17:26.256Z,11.92
2019-03-23T11:18:34.572Z,12.60
2019-03-23T11:19:40.403Z,13.52
2019-03-23T11:20:43.228Z,13.53
2019-03-23T11:21:46.499Z,13.10
2019-03-23T11:22:49.399Z,12.82
2019-03-23T11:23:52.264Z,12.70
2019-03-23T11:24:55.467Z,11.70
2019-03-23T11:25:59.910Z,11.70
2019-03-23T11:27:02.786Z,11.03
2019-03-23T11:28:07.969Z,11.13
2019-03-23T11:29:10.961Z,10.33
2019-03-23T11:42:50.421Z,9.88
2019-03-23T11:44:04.702Z,10.77
2019-03-23T11:49:19.205Z,10.46
2019-03-23T11:50:23.258Z,10.93
2019-03-23T12:11:41.843Z,11.18
2019-03-23T12:12:45.248Z,11.18
2019-03-23T12:13:48.098Z,10.85
2019-03-23T12:14:53.217Z,10.85
2019-03-23T12:15:56.138Z,10.66
2019-03-23T12:16:59.487Z,10.66
2019-03-23T12:18:02.437Z,10.60
2019-03-23T12:19:05.399Z,10.59
2019-03-23T12:20:08.216Z,10.59
2019-03-23T12:21:11.515Z,10.26
2019-03-23T12:22:14.488Z,10.81
2019-03-23T12:23:17.709Z,10.72
2019-03-23T12:24:20.635Z,10.31
2019-03-23T12:25:25.169Z,10.31
2019-03-23T12:26:28.544Z,10.77
2019-03-23T12:27:37.848Z,10.77
2019-03-23T12:28:44.806Z,10.75
2019-03-23T12:29:47.906Z,10.75
2019-03-23T12:30:50.722Z,10.60
2019-03-23T12:31:53.553Z,10.74
2019-03-23T12:32:56.385Z,10.38
2019-03-23T12:34:10.485Z,10.63
2019-03-23T12:35:18.195Z,10.87
2019-03-23T12:36:21.134Z,10.89
2019-03-23T12:37:24.019Z,10.89
2019-03-23T12:38:27.105Z,10.92
2019-03-23T12:39:32.843Z,10.97
2019-03-23T12:40:36.494Z,10.97
2019-03-23T12:41:39.782Z,11.51
2019-03-23T12:42:42.639Z,12.17
2019-03-23T12:43:48.519Z,11.39
2019-03-23T12:45:05.353Z,10.94
2019-03-23T12:46:08.417Z,11.60
2019-03-23T12:47:11.661Z,11.96
2019-03-23T12:48:15.366Z,11.96
2019-03-23T12:49:18.213Z,11.52
2019-03-23T12:50:21.117Z,10.86
2019-03-23T12:51:24.022Z,11.44
2019-03-23T12:52:26.819Z,11.62
2019-03-23T12:53:30.136Z,11.25
2019-03-23T12:54:36.946Z,11.25
2019-03-23T12:55:51.053Z,11.43
2019-03-23T12:56:54.040Z,12.47
2019-03-23T12:57:57.807Z,12.39
2019-03-23T12:59:00.662Z,12.39
2019-03-23T13:00:04.793Z,11.75
2019-03-23T13:01:10.807Z,11.83
2019-03-23T13:02:13.982Z,11.83
2019-03-23T13:03:16.866Z,11.62
2019-03-23T13:04:20.222Z,11.62
2019-03-23T13:05:26.641Z,11.19
2019-03-23T13:06:32.299Z,11.29
2019-03-23T13:07:34.622Z,11.25
2019-03-23T13:08:39.731Z,11.25
2019-03-23T13:09:45.303Z,11.59
2019-03-23T13:10:51.202Z,11.89
2019-03-23T13:11:55.571Z,12.59
2019-03-23T13:12:58.536Z,13.18
2019-03-23T13:14:01.743Z,13.41
2019-03-23T13:15:04.816Z,13.41
2019-03-23T13:16:11.212Z,13.88
2019-03-23T13:17:14.142Z,13.88
2019-03-23T13:18:27.104Z,13.67
2019-03-23T13:19:25.539Z,13.67
2019-03-23T13:20:28.534Z,13.67
2019-03-23T13:21:31.436Z,13.75
2019-03-23T13:22:34.321Z,14.04
2019-03-23T13:23:39.016Z,14.04
2019-03-23T13:24:42.307Z,14.17
2019-03-23T13:25:47.484Z,14.06
2019-03-23T13:27:00.350Z,14.00
2019-03-23T13:28:05.223Z,13.83
2019-03-23T13:29:11.675Z,14.41
2019-03-23T13:30:14.511Z,14.54
2019-03-23T13:31:17.444Z,14.60
2019-03-23T13:32:20.733Z,14.79
2019-03-23T13:33:23.669Z,14.79
2019-03-23T13:34:26.853Z,15.24
2019-03-23T13:35:32.222Z,15.43
2019-03-23T13:36:35.102Z,15.43
2019-03-23T13:37:39.760Z,15.26
2019-03-23T13:38:45.678Z,15.15
2019-03-23T13:39:51.423Z,15.38
2019-03-23T13:40:54.247Z,15.38
2019-03-23T13:41:57.505Z,15.02
2019-03-23T13:43:03.678Z,15.02
2019-03-23T13:44:06.672Z,15.63
2019-03-23T13:45:11.294Z,15.70
2019-03-23T13:46:14.126Z,15.70
2019-03-23T13:47:18.325Z,16.10
2019-03-23T13:48:21.257Z,16.10
2019-03-23T13:49:24.581Z,15.64
2019-03-23T13:50:27.789Z,16.03
2019-03-23T13:52:55.330Z,16.20
2019-03-23T13:53:58.166Z,15.78
2019-03-23T13:55:05.104Z,15.86
2019-03-23T13:56:07.927Z,15.86
2019-03-23T13:57:13.924Z,15.77
2019-03-23T13:58:16.856Z,15.77
2019-03-23T13:59:19.692Z,16.23
2019-03-23T14:00:22.880Z,16.23
2019-03-23T14:01:29.131Z,15.92
2019-03-23T14:02:33.677Z,15.92
2019-03-23T14:03:37.237Z,16.25
2019-03-23T14:04:40.102Z,16.25
2019-03-23T14:05:42.923Z,15.94
2019-03-23T14:06:45.810Z,16.13
2019-03-23T14:07:50.319Z,16.06
2019-03-23T14:08:53.263Z,16.06
2019-03-23T14:09:56.508Z,15.75
2019-03-23T14:11:02.811Z,15.75
2019-03-23T14:12:08.516Z,16.00
2019-03-23T14:13:11.744Z,16.04
2019-03-23T14:14:14.818Z,16.04
2019-03-23T14:15:17.725Z,16.25
2019-03-23T14:16:20.912Z,16.25
2019-03-23T14:17:23.796Z,16.34
2019-03-23T14:18:29.785Z,15.90
2019-03-23T14:19:33.045Z,16.19
2019-03-23T14:20:36.130Z,16.53
2019-03-23T14:21:42.098Z,16.24
2019-03-23T14:22:50.662Z,16.24
2019-03-23T14:23:55.250Z,15.80
2019-03-23T14:25:00.932Z,15.80
2019-03-23T14:26:05.116Z,15.56
2019-03-23T14:27:08.541Z,15.56
2019-03-23T14:28:11.536Z,15.82
2019-03-23T14:29:14.732Z,16.25
2019-03-23T14:30:21.983Z,16.26
2019-03-23T14:31:27.657Z,16.28
2019-03-23T14:32:30.552Z,16.18
2019-03-23T14:33:42.560Z,16.10
2019-03-23T14:34:47.246Z,16.02
2019-03-23T14:35:50.561Z,16.02
2019-03-23T14:36:53.372Z,15.92
2019-03-23T14:37:56.631Z,16.11
2019-03-23T14:38:59.619Z,15.72
2019-03-23T14:40:07.673Z,15.72
2019-03-23T14:41:15.304Z,16.05
2019-03-23T14:42:18.415Z,16.05
2019-03-23T14:43:21.782Z,15.68
2019-03-23T14:44:24.973Z,15.98
2019-03-23T14:45:28.868Z,15.98
2019-03-23T14:46:31.815Z,16.26
2019-03-23T14:47:38.303Z,16.07
2019-03-23T14:48:42.919Z,16.03
2019-03-23T14:49:46.591Z,15.61